KAKH/AKH METAR and TAF weather

Enter ICAO airport designator
Station Type Date Time Source
KAKH METAR 2022/01/19 20:54 UTC NOAA

KAKH 192054Z AUTO 20007KT 10SM CLR 14/M02 A3011 RMK AO2 SLP201 T01391022 55019


Station Type Date Time Source
KAKH Decoded METAR 2022/01/19 20:54 UTC NOAA

GASTONIA MUNICIPAL AIRPORT, NC, United States (KAKH) 35-12N 81-09W 243M
Jan 19, 2022 - 03:54 PM EST / 2022.01.19 2054 UTC
Wind: from the SSW (200 degrees) at 8 MPH (7 KT):0
Visibility: 10 mile(s):0
Sky conditions: clear
Temperature: 57.0 F (13.9 C)
Dew Point: 28.0 F (-2.2 C)
Relative Humidity: 32%
Pressure (altimeter): 30.11 in. Hg (1019 hPa)
Pressure tendency: 0.06 inches (1.9 hPa) lower than three hours ago
ob: KAKH 192054Z AUTO 20007KT 10SM CLR 14/M02 A3011 RMK AO2 SLP201 T01391022 55019
cycle: 21

Station Type Date Time Source
KAKH TAF UTC NOAA

Error!

Example: see airport list